createdAt,value
2023-04-07T00:01:00.403Z,4.03
2023-04-07T00:03:02.616Z,4.06
2023-04-07T00:05:04.497Z,4.06
2023-04-07T00:07:06.134Z,4.10
2023-04-07T00:09:07.623Z,4.14
2023-04-07T00:11:09.089Z,4.17
2023-04-07T00:13:10.568Z,4.15
2023-04-07T00:15:12.131Z,4.16
2023-04-07T00:17:13.598Z,4.08
2023-04-07T00:19:15.042Z,4.02
2023-04-07T00:21:16.515Z,4.00
2023-04-07T00:23:18.034Z,3.98
2023-04-07T00:25:19.485Z,3.89
2023-04-07T00:27:21.137Z,3.94
2023-04-07T00:29:22.610Z,3.95
2023-04-07T00:31:24.103Z,4.00
2023-04-07T00:33:26.099Z,3.94
2023-04-07T00:35:27.694Z,3.84
2023-04-07T00:37:29.267Z,3.87
2023-04-07T00:39:31.507Z,3.90
2023-04-07T00:41:34.255Z,3.88
2023-04-07T00:43:35.744Z,3.96
2023-04-07T00:45:37.883Z,3.93
2023-04-07T00:47:39.401Z,3.85
2023-04-07T00:49:41.016Z,3.81
2023-04-07T00:51:42.457Z,3.82
2023-04-07T00:53:44.030Z,3.78
2023-04-07T00:55:45.854Z,3.81
2023-04-07T00:57:47.299Z,3.81
2023-04-07T00:59:49.797Z,3.81
2023-04-07T01:01:55.511Z,3.85
2023-04-07T01:04:07.591Z,3.82
2023-04-07T01:06:09.158Z,3.87
2023-04-07T01:08:15.642Z,3.90
2023-04-07T01:10:25.442Z,4.00
2023-04-07T01:12:42.224Z,3.98
2023-04-07T01:14:47.458Z,3.99
2023-04-07T01:16:53.791Z,4.05
2023-04-07T01:18:58.000Z,3.96
2023-04-07T01:21:02.045Z,4.02
2023-04-07T01:23:04.685Z,3.98
2023-04-07T01:25:24.969Z,4.03
2023-04-07T01:27:29.290Z,4.08
2023-04-07T01:29:41.518Z,4.12
2023-04-07T01:31:43.225Z,4.02
2023-04-07T01:33:46.248Z,4.01
2023-04-07T01:35:48.276Z,4.00
2023-04-07T01:37:50.694Z,4.03
2023-04-07T01:39:52.143Z,3.99
2023-04-07T01:41:53.747Z,3.96
2023-04-07T01:43:55.918Z,3.94
2023-04-07T01:45:57.635Z,4.01
2023-04-07T01:47:59.344Z,4.05
2023-04-07T01:50:01.521Z,4.08
2023-04-07T01:52:03.023Z,4.01
2023-04-07T01:54:04.620Z,4.05
2023-04-07T01:56:06.331Z,3.99
2023-04-07T01:58:07.809Z,4.01
2023-04-07T02:00:09.431Z,4.07
2023-04-07T02:02:10.985Z,4.05
2023-04-07T02:04:13.304Z,4.07
2023-04-07T02:06:20.729Z,4.05
2023-04-07T02:08:22.246Z,4.05
2023-04-07T02:10:24.304Z,4.07
2023-04-07T02:12:26.740Z,4.09
2023-04-07T02:14:28.301Z,4.17
2023-04-07T02:16:32.851Z,4.20
2023-04-07T02:18:34.379Z,4.18
2023-04-07T02:20:35.855Z,4.22
2023-04-07T02:22:37.891Z,4.18
2023-04-07T02:24:41.688Z,4.20
2023-04-07T02:26:43.335Z,4.17
2023-04-07T02:28:44.829Z,4.19
2023-04-07T02:30:46.325Z,4.08
2023-04-07T02:32:47.932Z,4.06
2023-04-07T02:34:49.487Z,4.13
2023-04-07T02:36:51.178Z,4.20
2023-04-07T02:38:52.688Z,4.24
2023-04-07T02:40:54.271Z,4.24
2023-04-07T02:42:55.745Z,4.13
2023-04-07T02:44:57.316Z,4.09
2023-04-07T02:46:58.808Z,4.14
2023-04-07T02:49:00.266Z,4.22
2023-04-07T02:51:01.739Z,4.17
2023-04-07T02:53:03.235Z,4.30
2023-04-07T02:55:04.838Z,4.38
2023-04-07T02:57:06.314Z,4.32
2023-04-07T02:59:07.864Z,4.15
2023-04-07T03:01:09.492Z,4.03
2023-04-07T03:03:11.082Z,4.11
2023-04-07T03:05:12.711Z,4.23
2023-04-07T03:07:14.207Z,4.31
2023-04-07T03:09:15.723Z,4.31
2023-04-07T03:11:17.226Z,4.36
2023-04-07T03:13:19.783Z,4.27
2023-04-07T03:15:21.551Z,4.30
2023-04-07T03:17:23.070Z,4.29
2023-04-07T03:19:24.660Z,4.30
2023-04-07T03:21:26.161Z,4.41
2023-04-07T03:23:29.403Z,4.43
2023-04-07T03:25:31.374Z,4.42
2023-04-07T03:27:32.833Z,4.33
2023-04-07T03:29:34.299Z,4.33
2023-04-07T03:31:37.738Z,4.30
2023-04-07T03:33:39.291Z,4.35
2023-04-07T03:35:41.277Z,4.38
2023-04-07T03:37:42.950Z,4.32
2023-04-07T03:39:44.422Z,4.32
2023-04-07T03:41:45.906Z,4.24
2023-04-07T03:43:47.485Z,4.31
2023-04-07T03:45:48.980Z,4.32
2023-04-07T03:47:50.619Z,4.28
2023-04-07T03:49:52.178Z,4.29
2023-04-07T03:51:53.733Z,4.37
2023-04-07T03:53:55.393Z,4.44
2023-04-07T03:55:56.894Z,4.46
2023-04-07T03:57:58.402Z,4.48
2023-04-07T03:59:59.947Z,4.39
2023-04-07T04:02:01.964Z,4.36
2023-04-07T04:04:03.714Z,4.30
2023-04-07T04:06:05.927Z,4.22
2023-04-07T04:08:07.533Z,4.31
2023-04-07T04:10:09.371Z,4.30
2023-04-07T04:12:10.858Z,4.34
2023-04-07T04:14:12.560Z,4.30
2023-04-07T04:16:15.222Z,4.28
2023-04-07T04:18:16.936Z,4.38
2023-04-07T04:20:18.575Z,4.39
2023-04-07T04:22:20.045Z,4.43
2023-04-07T04:24:21.642Z,4.49
2023-04-07T04:26:26.195Z,4.46
2023-04-07T04:28:27.763Z,4.55
2023-04-07T04:30:29.257Z,4.58
2023-04-07T04:32:30.820Z,4.65
2023-04-07T04:34:32.652Z,4.69
2023-04-07T04:36:34.417Z,4.58
2023-04-07T04:38:36.949Z,4.62
2023-04-07T04:40:38.445Z,4.62
2023-04-07T04:42:40.024Z,4.58
2023-04-07T04:44:41.522Z,4.53
2023-04-07T04:46:43.123Z,4.59
2023-04-07T04:48:44.670Z,4.62
2023-04-07T04:50:46.191Z,4.70
2023-04-07T04:52:47.721Z,4.72
2023-04-07T04:54:49.321Z,4.77
2023-04-07T04:56:51.210Z,4.84
2023-04-07T04:58:52.740Z,4.74
2023-04-07T05:00:58.330Z,4.77
2023-04-07T05:03:00.326Z,4.85
2023-04-07T05:05:02.318Z,4.81
2023-04-07T05:07:04.202Z,4.85
2023-04-07T05:09:05.971Z,4.88
2023-04-07T05:11:07.474Z,4.81
2023-04-07T05:13:08.912Z,4.80
2023-04-07T05:15:10.676Z,4.84
2023-04-07T05:17:12.158Z,4.89
2023-04-07T05:19:13.738Z,5.00
2023-04-07T05:21:15.462Z,5.04
2023-04-07T05:23:16.939Z,5.02
2023-04-07T05:25:18.413Z,5.22
2023-04-07T05:27:19.964Z,4.95
2023-04-07T05:29:21.449Z,4.98
2023-04-07T05:31:23.024Z,5.04
2023-04-07T05:33:24.530Z,4.43
2023-04-07T05:35:26.033Z,4.12
2023-04-07T05:37:27.581Z,4.14
2023-04-07T05:39:29.086Z,4.20
2023-04-07T05:41:30.614Z,4.45
2023-04-07T05:43:32.119Z,4.59
2023-04-07T05:45:33.684Z,4.75
2023-04-07T05:47:35.457Z,4.92
2023-04-07T05:49:37.084Z,5.05
2023-04-07T05:51:38.559Z,5.10
2023-04-07T05:53:40.170Z,5.23
2023-04-07T05:55:44.471Z,5.24
2023-04-07T05:57:46.211Z,5.29
2023-04-07T05:59:47.704Z,5.33
2023-04-07T06:01:49.375Z,5.50
2023-04-07T06:03:51.071Z,5.73
2023-04-07T06:05:52.733Z,5.90
2023-04-07T06:07:54.569Z,6.02
2023-04-07T06:09:56.108Z,6.04
2023-04-07T06:11:57.778Z,6.12
2023-04-07T06:13:59.274Z,6.15
2023-04-07T06:16:01.109Z,6.14
2023-04-07T06:18:02.659Z,6.16
2023-04-07T06:20:04.404Z,6.22
2023-04-07T06:22:05.910Z,6.24
2023-04-07T06:24:07.515Z,6.28
2023-04-07T06:26:12.323Z,6.41
2023-04-07T06:28:13.883Z,6.34
2023-04-07T06:30:15.750Z,6.44
2023-04-07T06:32:17.251Z,6.58
2023-04-07T06:34:18.805Z,6.76
2023-04-07T06:36:21.224Z,6.67
2023-04-07T06:38:22.840Z,6.83
2023-04-07T06:40:24.349Z,7.06
2023-04-07T06:42:25.832Z,7.15
2023-04-07T06:44:27.364Z,7.22
2023-04-07T06:46:29.214Z,7.43
2023-04-07T06:48:30.893Z,7.37
2023-04-07T06:50:32.318Z,7.34
2023-04-07T06:52:33.822Z,7.37
2023-04-07T06:54:35.415Z,7.33
2023-04-07T06:56:37.082Z,7.08
2023-04-07T06:58:38.778Z,7.10
2023-04-07T07:00:40.567Z,7.36
2023-04-07T07:02:42.131Z,7.47
2023-04-07T07:04:43.674Z,7.49
2023-04-07T07:06:45.310Z,7.50
2023-04-07T07:08:46.863Z,7.40
2023-04-07T07:10:48.437Z,7.41
2023-04-07T07:12:51.206Z,7.53
2023-04-07T07:14:52.747Z,7.69
2023-04-07T07:16:54.204Z,7.77
2023-04-07T07:18:55.663Z,7.86
2023-04-07T07:20:57.111Z,7.82
2023-04-07T07:22:59.860Z,7.70
2023-04-07T07:25:01.485Z,7.21
2023-04-07T07:27:03.578Z,7.34
2023-04-07T07:29:05.081Z,7.23
2023-04-07T07:31:10.554Z,7.30
2023-04-07T07:33:12.227Z,7.32
2023-04-07T07:35:13.705Z,7.36
2023-04-07T07:37:16.071Z,7.46
2023-04-07T07:39:17.614Z,7.60
2023-04-07T07:41:19.138Z,7.60
2023-04-07T07:43:20.658Z,7.54
2023-04-07T07:45:22.362Z,7.50
2023-04-07T07:47:24.020Z,7.38
2023-04-07T07:49:25.572Z,7.56
2023-04-07T07:51:28.101Z,7.48
2023-04-07T07:53:29.570Z,7.51
2023-04-07T07:55:31.278Z,7.67
2023-04-07T07:57:32.859Z,7.64
2023-04-07T07:59:34.350Z,7.63
2023-04-07T08:01:36.026Z,7.48
2023-04-07T08:03:38.248Z,7.59
2023-04-07T08:05:40.010Z,7.54
2023-04-07T08:07:43.159Z,7.69
2023-04-07T08:09:44.735Z,7.71
2023-04-07T08:11:48.366Z,7.69
2023-04-07T08:13:50.134Z,7.74
2023-04-07T08:15:51.909Z,7.84
2023-04-07T08:17:54.820Z,7.91
2023-04-07T08:19:57.735Z,8.12
2023-04-07T08:21:59.293Z,7.96
2023-04-07T08:24:01.123Z,8.09
2023-04-07T08:26:02.618Z,8.20
2023-04-07T08:28:04.248Z,8.24
2023-04-07T08:30:09.209Z,8.33
2023-04-07T08:32:10.924Z,8.13
2023-04-07T08:34:13.717Z,8.23
2023-04-07T08:36:15.262Z,8.27
2023-04-07T08:38:17.732Z,8.20
2023-04-07T08:40:19.255Z,8.06
2023-04-07T08:42:20.981Z,8.18
2023-04-07T08:44:22.777Z,8.30
2023-04-07T08:46:24.389Z,8.31
2023-04-07T08:48:27.256Z,8.31
2023-04-07T08:50:28.788Z,8.32
2023-04-07T08:52:39.038Z,8.31
2023-04-07T08:54:40.827Z,8.48
2023-04-07T08:56:42.929Z,8.63
2023-04-07T08:58:44.810Z,8.48
2023-04-07T09:00:46.865Z,8.42
2023-04-07T09:02:49.579Z,8.76
2023-04-07T09:04:51.947Z,8.71
2023-04-07T09:06:53.392Z,8.95
2023-04-07T09:08:55.409Z,9.13
2023-04-07T09:10:57.166Z,9.42
2023-04-07T09:12:59.601Z,9.54
2023-04-07T09:15:01.216Z,9.29
2023-04-07T09:17:02.752Z,9.15
2023-04-07T09:19:04.226Z,9.16
2023-04-07T09:21:06.076Z,8.99
2023-04-07T09:23:07.598Z,8.73
2023-04-07T09:25:11.976Z,8.82
2023-04-07T09:27:17.021Z,8.88
2023-04-07T09:29:22.501Z,9.04
2023-04-07T09:31:26.464Z,8.89
2023-04-07T09:33:28.309Z,8.94
2023-04-07T09:35:30.044Z,8.92
2023-04-07T09:37:31.719Z,8.63
2023-04-07T09:39:33.336Z,8.54
2023-04-07T09:41:34.955Z,8.40
2023-04-07T09:43:38.285Z,8.36
2023-04-07T09:45:39.776Z,8.47
2023-04-07T09:47:41.273Z,8.49
2023-04-07T09:49:55.141Z,8.55
2023-04-07T09:51:57.639Z,8.42
2023-04-07T09:53:59.251Z,8.59
2023-04-07T09:56:01.049Z,8.45
2023-04-07T09:58:02.654Z,7.92
2023-04-07T10:00:04.384Z,8.17
2023-04-07T10:02:06.546Z,8.10
2023-04-07T10:04:08.211Z,8.08
2023-04-07T10:06:10.451Z,8.50
2023-04-07T10:08:12.261Z,8.85
2023-04-07T10:10:13.868Z,8.57
2023-04-07T10:12:15.506Z,8.00
2023-04-07T10:14:17.052Z,7.65
2023-04-07T10:16:18.549Z,7.59
2023-04-07T10:18:20.834Z,7.71
2023-04-07T10:20:22.287Z,8.03
2023-04-07T10:22:24.335Z,8.17
2023-04-07T10:24:31.987Z,8.26
2023-04-07T10:26:33.783Z,7.50
2023-04-07T10:28:35.745Z,7.59
2023-04-07T10:30:37.711Z,7.80
2023-04-07T10:32:49.170Z,8.14
2023-04-07T10:34:50.648Z,8.03
2023-04-07T10:37:11.094Z,7.94
2023-04-07T10:39:12.606Z,8.07
2023-04-07T10:41:34.418Z,8.11
2023-04-07T10:43:44.212Z,8.13
2023-04-07T10:45:48.935Z,7.88
2023-04-07T10:48:02.994Z,7.09
2023-04-07T10:50:20.723Z,6.88
2023-04-07T10:52:23.257Z,6.81
2023-04-07T10:54:29.084Z,6.50
2023-04-07T10:56:51.023Z,6.42
2023-04-07T10:59:12.844Z,6.57
2023-04-07T11:01:14.373Z,6.55
2023-04-07T11:03:16.127Z,6.88
2023-04-07T11:05:21.700Z,7.30
2023-04-07T11:07:43.046Z,7.47
2023-04-07T11:09:44.830Z,6.92
2023-04-07T11:11:48.750Z,6.79
2023-04-07T11:13:51.080Z,6.57
2023-04-07T11:15:52.939Z,6.92
2023-04-07T11:18:10.582Z,7.14
2023-04-07T11:20:12.152Z,7.11
2023-04-07T11:22:28.722Z,6.84
2023-04-07T11:24:40.558Z,6.95
2023-04-07T11:26:42.140Z,6.94
2023-04-07T11:28:49.603Z,7.08
2023-04-07T11:30:52.876Z,7.36
2023-04-07T11:32:54.774Z,7.24
2023-04-07T11:34:56.306Z,6.98
2023-04-07T11:36:59.834Z,6.55
2023-04-07T11:39:02.264Z,6.50
2023-04-07T11:41:14.918Z,6.81
2023-04-07T11:43:20.439Z,6.95
2023-04-07T11:45:22.131Z,6.68
2023-04-07T11:47:33.513Z,7.09
2023-04-07T11:49:34.974Z,7.13
2023-04-07T11:51:36.465Z,6.95
2023-04-07T11:53:41.217Z,6.98
2023-04-07T11:55:42.716Z,7.22
2023-04-07T11:57:44.458Z,6.93
2023-04-07T11:59:45.921Z,6.97
2023-04-07T12:01:48.425Z,6.98
2023-04-07T12:04:03.283Z,7.10
2023-04-07T12:06:05.253Z,7.24
2023-04-07T12:08:06.818Z,7.44
2023-04-07T12:10:21.116Z,7.26
2023-04-07T12:12:29.110Z,7.46
2023-04-07T12:14:30.667Z,7.63
2023-04-07T12:16:32.268Z,7.45
2023-04-07T12:18:33.879Z,7.28
2023-04-07T12:20:37.506Z,7.21
2023-04-07T12:22:39.289Z,7.12
2023-04-07T12:24:40.862Z,7.34
2023-04-07T12:26:42.372Z,7.68
2023-04-07T12:28:44.237Z,7.50
2023-04-07T12:30:45.725Z,7.56
2023-04-07T12:32:47.590Z,7.73
2023-04-07T12:34:49.138Z,7.63
2023-04-07T12:36:50.615Z,7.61
2023-04-07T12:38:52.938Z,7.18
2023-04-07T12:40:54.543Z,7.03
2023-04-07T12:42:58.339Z,6.86
2023-04-07T12:45:00.120Z,6.84
2023-04-07T12:47:02.633Z,7.13
2023-04-07T12:49:04.218Z,7.40
2023-04-07T12:51:05.945Z,7.46
2023-04-07T12:53:07.496Z,7.52
2023-04-07T12:55:09.106Z,7.59
2023-04-07T12:57:11.002Z,7.65
2023-04-07T12:59:13.068Z,7.35
2023-04-07T13:01:14.728Z,7.52
2023-04-07T13:03:16.948Z,7.85
2023-04-07T13:05:19.018Z,7.52
2023-04-07T13:07:22.004Z,7.54
2023-04-07T13:09:24.866Z,7.33
2023-04-07T13:11:26.403Z,7.44
2023-04-07T13:13:28.017Z,7.48
2023-04-07T13:15:29.599Z,7.60
2023-04-07T13:17:31.258Z,7.33
2023-04-07T13:19:32.768Z,7.52
2023-04-07T13:21:46.272Z,7.56
2023-04-07T13:23:50.904Z,7.39
2023-04-07T13:25:52.466Z,7.36
2023-04-07T13:27:53.950Z,7.51
2023-04-07T13:29:55.850Z,7.60
2023-04-07T13:32:06.975Z,7.53
2023-04-07T13:34:08.673Z,7.38
2023-04-07T13:36:10.398Z,7.50
2023-04-07T13:38:12.073Z,7.42
2023-04-07T13:40:13.635Z,6.82
2023-04-07T13:42:17.705Z,6.69
2023-04-07T13:44:19.180Z,6.59
2023-04-07T13:46:28.350Z,6.67
2023-04-07T13:48:30.527Z,6.75
2023-04-07T13:50:32.016Z,6.67
2023-04-07T13:52:35.478Z,6.86
2023-04-07T13:54:38.237Z,7.20
2023-04-07T13:56:41.021Z,7.18
2023-04-07T13:58:42.703Z,7.30
2023-04-07T14:00:44.224Z,7.27
2023-04-07T14:02:47.749Z,6.92
2023-04-07T14:04:49.386Z,6.64
2023-04-07T14:06:50.950Z,6.67
2023-04-07T14:08:52.484Z,6.40
2023-04-07T14:10:54.162Z,6.54
2023-04-07T14:12:56.421Z,6.69
2023-04-07T14:14:57.966Z,6.81
2023-04-07T14:16:59.614Z,7.09
2023-04-07T14:19:01.114Z,6.97
2023-04-07T14:21:03.423Z,6.75
2023-04-07T14:23:05.024Z,6.81
2023-04-07T14:25:06.777Z,6.73
2023-04-07T14:27:08.547Z,6.51
2023-04-07T14:29:10.181Z,6.40
2023-04-07T14:31:15.829Z,6.28
2023-04-07T14:33:17.537Z,6.39
2023-04-07T14:35:19.034Z,6.45
2023-04-07T14:37:24.190Z,6.61
2023-04-07T14:39:25.885Z,6.68
2023-04-07T14:41:27.524Z,6.58
2023-04-07T14:43:29.578Z,6.45
2023-04-07T14:45:31.022Z,6.44
2023-04-07T14:47:32.526Z,6.22
2023-04-07T14:49:34.876Z,6.26
2023-04-07T14:51:36.462Z,6.27
2023-04-07T14:53:37.972Z,6.15
2023-04-07T14:55:41.475Z,6.06
2023-04-07T14:57:43.007Z,6.20
2023-04-07T14:59:44.528Z,5.89
2023-04-07T15:01:46.158Z,6.03
2023-04-07T15:03:47.872Z,6.17
2023-04-07T15:05:49.787Z,6.25
2023-04-07T15:07:52.477Z,6.19
2023-04-07T15:09:54.178Z,6.00
2023-04-07T15:11:56.432Z,5.99
2023-04-07T15:13:58.123Z,6.06
2023-04-07T15:16:06.217Z,5.96
2023-04-07T15:18:07.876Z,5.91
2023-04-07T15:20:09.767Z,5.85
2023-04-07T15:22:11.304Z,5.95
2023-04-07T15:24:14.250Z,5.93
2023-04-07T15:26:16.969Z,5.80
2023-04-07T15:28:18.455Z,5.89
2023-04-07T15:30:21.022Z,5.61
2023-04-07T15:32:22.539Z,5.62
2023-04-07T15:34:24.016Z,5.64
2023-04-07T15:36:26.050Z,5.58
2023-04-07T15:38:30.454Z,5.86
2023-04-07T15:40:31.862Z,5.72
2023-04-07T15:42:41.719Z,5.92
2023-04-07T15:44:43.548Z,6.05
2023-04-07T15:46:45.069Z,5.92
2023-04-07T15:48:47.867Z,5.93
2023-04-07T15:50:49.350Z,5.64
2023-04-07T15:52:50.855Z,5.60
2023-04-07T15:54:52.340Z,5.49
2023-04-07T15:56:53.947Z,5.51
2023-04-07T15:58:55.711Z,5.68
2023-04-07T16:00:57.484Z,5.85
2023-04-07T16:02:59.296Z,6.10
2023-04-07T16:05:01.274Z,6.34
2023-04-07T16:07:02.753Z,6.54
2023-04-07T16:09:04.376Z,6.48
2023-04-07T16:11:05.903Z,6.34
2023-04-07T16:13:07.417Z,6.41
2023-04-07T16:15:11.226Z,6.35
2023-04-07T16:17:12.814Z,6.14
2023-04-07T16:19:14.638Z,5.79
2023-04-07T16:21:16.473Z,5.75
2023-04-07T16:23:17.994Z,5.80
2023-04-07T16:25:19.721Z,6.02
2023-04-07T16:27:21.318Z,6.17
2023-04-07T16:29:22.877Z,6.17
2023-04-07T16:31:24.543Z,5.99
2023-04-07T16:33:26.257Z,6.03
2023-04-07T16:35:28.195Z,5.96
2023-04-07T16:37:30.414Z,5.68
2023-04-07T16:39:31.936Z,5.73
2023-04-07T16:41:33.522Z,5.53
2023-04-07T16:43:35.000Z,5.46
2023-04-07T16:45:36.579Z,5.46
2023-04-07T16:47:38.239Z,5.43
2023-04-07T16:49:39.768Z,5.52
2023-04-07T16:51:41.284Z,5.75
2023-04-07T16:53:42.754Z,5.96
2023-04-07T16:55:44.246Z,6.15
2023-04-07T16:57:45.711Z,6.27
2023-04-07T16:59:48.462Z,6.35
2023-04-07T17:01:50.139Z,6.22
2023-04-07T17:03:52.681Z,6.06
2023-04-07T17:05:54.565Z,5.95
2023-04-07T17:07:57.196Z,6.09
2023-04-07T17:09:58.932Z,6.24
2023-04-07T17:12:01.327Z,6.39
2023-04-07T17:14:03.375Z,6.49
2023-04-07T17:16:05.194Z,6.24
2023-04-07T17:18:07.067Z,6.32
2023-04-07T17:20:09.356Z,6.50
2023-04-07T17:22:10.909Z,6.68
2023-04-07T17:24:15.413Z,6.84
2023-04-07T17:26:16.921Z,6.98
2023-04-07T17:28:18.423Z,7.09
2023-04-07T17:30:19.905Z,7.18
2023-04-07T17:32:22.087Z,7.27
2023-04-07T17:34:23.713Z,7.30
2023-04-07T17:36:28.298Z,7.39
2023-04-07T17:38:30.595Z,7.43
2023-04-07T17:40:32.448Z,7.48
2023-04-07T17:42:33.978Z,7.54
2023-04-07T17:44:35.426Z,7.59
2023-04-07T17:46:36.982Z,7.64
2023-04-07T17:48:38.561Z,7.66
2023-04-07T17:50:40.182Z,7.69
2023-04-07T17:52:41.887Z,7.71
2023-04-07T17:54:43.409Z,7.68
2023-04-07T17:56:44.906Z,7.70
2023-04-07T17:58:46.770Z,7.74
2023-04-07T18:00:48.287Z,7.74
2023-04-07T18:02:50.257Z,7.73
2023-04-07T18:04:52.014Z,7.82
2023-04-07T18:06:53.530Z,7.79
2023-04-07T18:08:55.021Z,7.83
2023-04-07T18:10:56.649Z,7.83
2023-04-07T18:12:58.629Z,7.85
2023-04-07T18:15:00.164Z,7.86
2023-04-07T18:17:02.672Z,7.85
2023-04-07T18:19:04.120Z,7.77
2023-04-07T18:21:06.704Z,7.75
2023-04-07T18:23:08.510Z,7.79
2023-04-07T18:25:11.708Z,7.83
2023-04-07T18:27:13.256Z,7.85
2023-04-07T18:29:15.027Z,7.85
2023-04-07T18:31:16.684Z,7.88
2023-04-07T18:33:18.467Z,7.92
2023-04-07T18:35:20.321Z,7.98
2023-04-07T18:37:22.284Z,7.94
2023-04-07T18:39:27.862Z,7.92
2023-04-07T18:41:29.453Z,7.90
2023-04-07T18:43:31.475Z,7.88
2023-04-07T18:45:36.789Z,7.88
2023-04-07T18:47:39.083Z,7.92
2023-04-07T18:49:40.587Z,7.95
2023-04-07T18:51:42.933Z,7.94
2023-04-07T18:53:44.508Z,7.99
2023-04-07T18:55:46.136Z,7.98
2023-04-07T18:57:47.717Z,7.97
2023-04-07T18:59:49.181Z,7.96
2023-04-07T19:01:51.090Z,7.94
2023-04-07T19:03:52.939Z,7.91
2023-04-07T19:05:55.427Z,7.91
2023-04-07T19:07:56.932Z,7.94
2023-04-07T19:09:58.419Z,7.91
2023-04-07T19:11:59.950Z,7.80
2023-04-07T19:14:01.399Z,7.80
2023-04-07T19:16:03.352Z,7.73
2023-04-07T19:18:04.928Z,7.78
2023-04-07T19:20:06.913Z,7.79
2023-04-07T19:22:08.372Z,7.76
2023-04-07T19:24:09.925Z,7.72
2023-04-07T19:26:12.168Z,7.72
2023-04-07T19:28:13.669Z,7.69
2023-04-07T19:30:16.306Z,7.64
2023-04-07T19:32:17.984Z,7.57
2023-04-07T19:34:19.496Z,7.56
2023-04-07T19:36:21.025Z,7.58
2023-04-07T19:38:22.518Z,7.60
2023-04-07T19:40:24.724Z,7.62
2023-04-07T19:42:26.435Z,7.62
2023-04-07T19:44:27.974Z,7.67
2023-04-07T19:46:29.516Z,7.70
2023-04-07T19:48:31.008Z,7.70
2023-04-07T19:50:32.573Z,7.72
2023-04-07T19:52:34.142Z,7.75
2023-04-07T19:54:35.636Z,7.79
2023-04-07T19:56:37.654Z,7.82
2023-04-07T19:58:39.331Z,7.79
2023-04-07T20:00:41.477Z,7.83
2023-04-07T20:02:43.221Z,7.84
2023-04-07T20:04:44.922Z,7.83
2023-04-07T20:06:46.460Z,7.83
2023-04-07T20:08:48.703Z,7.72
2023-04-07T20:10:51.448Z,7.69
2023-04-07T20:12:52.932Z,7.65
2023-04-07T20:14:54.403Z,7.70
2023-04-07T20:16:56.474Z,7.72
2023-04-07T20:18:58.220Z,7.70
2023-04-07T20:21:02.705Z,7.70
2023-04-07T20:23:04.272Z,7.73
2023-04-07T20:25:06.307Z,7.74
2023-04-07T20:27:08.087Z,7.73
2023-04-07T20:29:09.594Z,7.78
2023-04-07T20:31:11.158Z,7.80
2023-04-07T20:33:12.714Z,7.82
2023-04-07T20:35:14.423Z,7.78
2023-04-07T20:37:15.900Z,7.74
2023-04-07T20:39:17.370Z,7.73
2023-04-07T20:41:18.822Z,7.77
2023-04-07T20:43:22.069Z,7.76
2023-04-07T20:45:23.732Z,7.79
2023-04-07T20:47:25.254Z,7.80
2023-04-07T20:49:26.942Z,7.79
2023-04-07T20:51:29.037Z,7.80
2023-04-07T20:53:30.611Z,7.84
2023-04-07T20:55:32.774Z,7.89
2023-04-07T20:57:34.290Z,7.90
2023-04-07T20:59:36.120Z,7.94
2023-04-07T21:01:38.697Z,7.95
2023-04-07T21:03:40.441Z,7.96
2023-04-07T21:05:43.443Z,7.93
2023-04-07T21:07:44.985Z,7.92
2023-04-07T21:09:46.500Z,7.86
2023-04-07T21:11:47.960Z,7.86
2023-04-07T21:13:49.525Z,7.82
2023-04-07T21:15:51.036Z,7.82
2023-04-07T21:17:53.053Z,7.83
2023-04-07T21:19:54.587Z,7.85
2023-04-07T21:21:56.287Z,7.85
2023-04-07T21:23:59.662Z,7.85
2023-04-07T21:26:02.251Z,7.92
2023-04-07T21:28:03.797Z,7.95
2023-04-07T21:30:06.261Z,7.99
2023-04-07T21:32:08.124Z,8.02
2023-04-07T21:34:09.601Z,8.03
2023-04-07T21:36:11.531Z,8.00
2023-04-07T21:38:13.164Z,8.00
2023-04-07T21:40:14.731Z,8.04
2023-04-07T21:42:16.629Z,8.03
2023-04-07T21:44:20.133Z,8.01
2023-04-07T21:46:21.704Z,8.03
2023-04-07T21:48:23.606Z,8.04
2023-04-07T21:50:25.541Z,8.01
2023-04-07T21:52:27.412Z,8.00
2023-04-07T21:54:28.860Z,8.02
2023-04-07T21:56:30.455Z,7.97
2023-04-07T21:58:31.965Z,7.85
2023-04-07T22:00:33.777Z,7.75
2023-04-07T22:02:35.864Z,7.35
2023-04-07T22:04:37.657Z,6.90
2023-04-07T22:06:39.320Z,6.79
2023-04-07T22:08:44.325Z,6.74
2023-04-07T22:10:50.403Z,6.49
2023-04-07T22:12:52.019Z,6.38
2023-04-07T22:14:53.466Z,6.10
2023-04-07T22:16:55.070Z,5.99
2023-04-07T22:18:56.614Z,6.04
2023-04-07T22:20:58.050Z,6.17
2023-04-07T22:22:59.667Z,6.25
2023-04-07T22:25:01.271Z,6.18
2023-04-07T22:27:03.106Z,6.10
2023-04-07T22:29:04.625Z,6.05
2023-04-07T22:31:06.283Z,5.97
2023-04-07T22:33:09.731Z,5.80
2023-04-07T22:35:11.873Z,5.90
2023-04-07T22:37:13.483Z,5.99
2023-04-07T22:39:14.997Z,6.10
2023-04-07T22:41:16.446Z,6.07
2023-04-07T22:43:17.985Z,6.03
2023-04-07T22:45:19.898Z,6.10
2023-04-07T22:47:22.389Z,6.24
2023-04-07T22:49:24.036Z,6.37
2023-04-07T22:51:25.638Z,6.50
2023-04-07T22:53:27.091Z,6.53
2023-04-07T22:55:29.439Z,6.57
2023-04-07T22:57:31.036Z,6.69
2023-04-07T22:59:32.511Z,6.82
2023-04-07T23:01:34.116Z,6.90
2023-04-07T23:03:35.886Z,6.99
2023-04-07T23:05:37.446Z,7.03
2023-04-07T23:07:38.931Z,7.11
2023-04-07T23:09:40.387Z,7.15
2023-04-07T23:11:42.087Z,7.23
2023-04-07T23:13:44.270Z,7.26
2023-04-07T23:15:46.265Z,7.30
2023-04-07T23:17:47.794Z,7.34
2023-04-07T23:19:49.501Z,7.31
2023-04-07T23:21:51.108Z,7.35
2023-04-07T23:23:52.722Z,7.33
2023-04-07T23:25:54.160Z,7.35
2023-04-07T23:27:55.684Z,7.34
2023-04-07T23:29:58.169Z,7.36
2023-04-07T23:31:59.753Z,7.37
2023-04-07T23:34:01.430Z,7.42
2023-04-07T23:36:03.050Z,7.39
2023-04-07T23:38:04.804Z,7.40
2023-04-07T23:40:06.672Z,7.38
2023-04-07T23:42:08.288Z,7.30
2023-04-07T23:44:09.804Z,7.12
2023-04-07T23:46:11.417Z,7.00
2023-04-07T23:48:12.969Z,6.98
2023-04-07T23:50:14.714Z,7.05
2023-04-07T23:52:16.374Z,7.14
2023-04-07T23:54:17.837Z,7.18
2023-04-07T23:56:19.327Z,7.18
2023-04-07T23:58:20.980Z,7.16
